sensor_id;sensor_type;location;lat;lon;timestamp;P1;durP1;ratioP1;P2;durP2;ratioP2
43706;SDS011;61348;53.392;-6.248;2024-03-08T00:00:12;50.72;;;24.25;;
43706;SDS011;61348;53.392;-6.248;2024-03-08T00:02:44;59.85;;;23.90;;
43706;SDS011;61348;53.392;-6.248;2024-03-08T00:05:13;47.88;;;20.35;;
43706;SDS011;61348;53.392;-6.248;2024-03-08T00:07:41;45.50;;;22.60;;
43706;SDS011;61348;53.392;-6.248;2024-03-08T00:10:12;52.63;;;22.25;;
43706;SDS011;61348;53.392;-6.248;2024-03-08T00:12:42;48.95;;;22.75;;
43706;SDS011;61348;53.392;-6.248;2024-03-08T00:15:11;47.47;;;23.02;;
43706;SDS011;61348;53.392;-6.248;2024-03-08T00:17:43;55.10;;;23.55;;
43706;SDS011;61348;53.392;-6.248;2024-03-08T00:20:12;48.75;;;23.15;;
43706;SDS011;61348;53.392;-6.248;2024-03-08T00:22:41;43.75;;;20.88;;
43706;SDS011;61348;53.392;-6.248;2024-03-08T00:25:08;41.00;;;21.02;;
43706;SDS011;61348;53.392;-6.248;2024-03-08T00:27:36;43.03;;;18.92;;
43706;SDS011;61348;53.392;-6.248;2024-03-08T00:30:05;49.42;;;22.40;;
43706;SDS011;61348;53.392;-6.248;2024-03-08T00:32:34;46.70;;;21.10;;
43706;SDS011;61348;53.392;-6.248;2024-03-08T00:35:02;45.70;;;20.00;;
43706;SDS011;61348;53.392;-6.248;2024-03-08T00:37:31;42.80;;;20.02;;
43706;SDS011;61348;53.392;-6.248;2024-03-08T00:39:59;44.35;;;20.50;;
43706;SDS011;61348;53.392;-6.248;2024-03-08T00:42:26;43.17;;;22.00;;
43706;SDS011;61348;53.392;-6.248;2024-03-08T00:44:54;39.13;;;15.73;;
43706;SDS011;61348;53.392;-6.248;2024-03-08T00:47:21;41.75;;;20.48;;
43706;SDS011;61348;53.392;-6.248;2024-03-08T00:49:48;35.83;;;18.60;;
43706;SDS011;61348;53.392;-6.248;2024-03-08T00:52:16;36.40;;;21.27;;
43706;SDS011;61348;53.392;-6.248;2024-03-08T00:54:44;39.90;;;18.10;;
43706;SDS011;61348;53.392;-6.248;2024-03-08T00:57:12;43.95;;;19.20;;
43706;SDS011;61348;53.392;-6.248;2024-03-08T00:59:39;35.10;;;19.40;;
43706;SDS011;61348;53.392;-6.248;2024-03-08T01:02:07;43.90;;;21.77;;
43706;SDS011;61348;53.392;-6.248;2024-03-08T01:04:36;43.25;;;20.50;;
43706;SDS011;61348;53.392;-6.248;2024-03-08T01:07:03;39.55;;;19.80;;
43706;SDS011;61348;53.392;-6.248;2024-03-08T01:09:30;41.28;;;20.33;;
43706;SDS011;61348;53.392;-6.248;2024-03-08T01:11:59;48.10;;;18.83;;
43706;SDS011;61348;53.392;-6.248;2024-03-08T01:14:26;45.67;;;20.45;;
43706;SDS011;61348;53.392;-6.248;2024-03-08T01:16:55;45.97;;;21.08;;
43706;SDS011;61348;53.392;-6.248;2024-03-08T01:19:23;44.78;;;19.73;;
43706;SDS011;61348;53.392;-6.248;2024-03-08T01:21:51;47.80;;;20.83;;
43706;SDS011;61348;53.392;-6.248;2024-03-08T01:24:19;42.50;;;19.67;;
43706;SDS011;61348;53.392;-6.248;2024-03-08T01:26:46;29.98;;;15.52;;
43706;SDS011;61348;53.392;-6.248;2024-03-08T01:29:14;40.15;;;18.33;;
43706;SDS011;61348;53.392;-6.248;2024-03-08T01:31:42;38.63;;;19.20;;
43706;SDS011;61348;53.392;-6.248;2024-03-08T01:34:10;44.00;;;20.00;;
43706;SDS011;61348;53.392;-6.248;2024-03-08T01:36:37;34.38;;;17.40;;
43706;SDS011;61348;53.392;-6.248;2024-03-08T01:39:04;35.78;;;17.70;;
43706;SDS011;61348;53.392;-6.248;2024-03-08T01:41:35;41.83;;;18.90;;
43706;SDS011;61348;53.392;-6.248;2024-03-08T01:44:03;39.65;;;19.50;;
43706;SDS011;61348;53.392;-6.248;2024-03-08T01:46:30;35.75;;;18.95;;
43706;SDS011;61348;53.392;-6.248;2024-03-08T01:48:58;49.13;;;19.02;;
43706;SDS011;61348;53.392;-6.248;2024-03-08T01:51:28;36.63;;;19.17;;
43706;SDS011;61348;53.392;-6.248;2024-03-08T01:53:56;38.53;;;18.13;;
43706;SDS011;61348;53.392;-6.248;2024-03-08T01:56:27;36.72;;;17.95;;
43706;SDS011;61348;53.392;-6.248;2024-03-08T01:58:54;41.45;;;20.30;;
43706;SDS011;61348;53.392;-6.248;2024-03-08T02:01:22;44.42;;;19.45;;
43706;SDS011;61348;53.392;-6.248;2024-03-08T02:03:49;42.42;;;17.83;;
43706;SDS011;61348;53.392;-6.248;2024-03-08T02:06:17;40.75;;;18.92;;
43706;SDS011;61348;53.392;-6.248;2024-03-08T02:08:45;39.15;;;18.92;;
43706;SDS011;61348;53.392;-6.248;2024-03-08T02:11:14;40.88;;;19.00;;
43706;SDS011;61348;53.392;-6.248;2024-03-08T02:13:43;35.40;;;17.83;;
43706;SDS011;61348;53.392;-6.248;2024-03-08T02:16:10;36.90;;;17.10;;
43706;SDS011;61348;53.392;-6.248;2024-03-08T02:18:37;41.75;;;18.85;;
43706;SDS011;61348;53.392;-6.248;2024-03-08T02:21:07;32.63;;;18.00;;
43706;SDS011;61348;53.392;-6.248;2024-03-08T02:23:35;36.15;;;17.02;;
43706;SDS011;61348;53.392;-6.248;2024-03-08T02:26:04;40.53;;;20.60;;
43706;SDS011;61348;53.392;-6.248;2024-03-08T02:28:32;40.13;;;16.65;;
43706;SDS011;61348;53.392;-6.248;2024-03-08T02:31:01;38.03;;;18.65;;
43706;SDS011;61348;53.392;-6.248;2024-03-08T02:33:29;34.53;;;17.55;;
43706;SDS011;61348;53.392;-6.248;2024-03-08T02:35:56;35.80;;;16.20;;
43706;SDS011;61348;53.392;-6.248;2024-03-08T02:38:23;34.50;;;16.98;;
43706;SDS011;61348;53.392;-6.248;2024-03-08T02:40:53;32.67;;;15.65;;
43706;SDS011;61348;53.392;-6.248;2024-03-08T02:43:21;37.53;;;18.05;;
43706;SDS011;61348;53.392;-6.248;2024-03-08T02:45:50;36.63;;;17.60;;
43706;SDS011;61348;53.392;-6.248;2024-03-08T02:48:19;36.08;;;17.70;;
43706;SDS011;61348;53.392;-6.248;2024-03-08T02:50:49;38.10;;;17.75;;
43706;SDS011;61348;53.392;-6.248;2024-03-08T02:53:18;35.78;;;15.90;;
43706;SDS011;61348;53.392;-6.248;2024-03-08T02:55:46;35.10;;;15.15;;
43706;SDS011;61348;53.392;-6.248;2024-03-08T02:58:14;36.92;;;17.50;;
43706;SDS011;61348;53.392;-6.248;2024-03-08T03:00:42;30.40;;;16.77;;
43706;SDS011;61348;53.392;-6.248;2024-03-08T03:03:11;32.90;;;15.77;;
43706;SDS011;61348;53.392;-6.248;2024-03-08T03:05:39;32.10;;;15.80;;
43706;SDS011;61348;53.392;-6.248;2024-03-08T03:08:13;32.22;;;16.63;;
43706;SDS011;61348;53.392;-6.248;2024-03-08T03:10:42;33.70;;;17.42;;
43706;SDS011;61348;53.392;-6.248;2024-03-08T03:13:09;30.75;;;15.60;;
43706;SDS011;61348;53.392;-6.248;2024-03-08T03:15:37;30.15;;;15.93;;
43706;SDS011;61348;53.392;-6.248;2024-03-08T03:18:04;33.38;;;13.95;;
43706;SDS011;61348;53.392;-6.248;2024-03-08T03:20:35;36.92;;;16.45;;
43706;SDS011;61348;53.392;-6.248;2024-03-08T03:23:10;31.23;;;13.90;;
43706;SDS011;61348;53.392;-6.248;2024-03-08T03:25:42;28.50;;;14.75;;
43706;SDS011;61348;53.392;-6.248;2024-03-08T03:28:09;34.03;;;14.30;;
43706;SDS011;61348;53.392;-6.248;2024-03-08T03:30:38;27.33;;;14.65;;
43706;SDS011;61348;53.392;-6.248;2024-03-08T03:33:06;33.83;;;15.65;;
43706;SDS011;61348;53.392;-6.248;2024-03-08T03:35:35;34.33;;;15.02;;
43706;SDS011;61348;53.392;-6.248;2024-03-08T03:38:04;28.80;;;13.50;;
43706;SDS011;61348;53.392;-6.248;2024-03-08T03:40:38;31.77;;;15.48;;
43706;SDS011;61348;53.392;-6.248;2024-03-08T03:43:07;38.53;;;15.95;;
43706;SDS011;61348;53.392;-6.248;2024-03-08T03:45:37;30.88;;;12.70;;
43706;SDS011;61348;53.392;-6.248;2024-03-08T03:48:07;28.40;;;13.35;;
43706;SDS011;61348;53.392;-6.248;2024-03-08T03:50:37;34.78;;;15.05;;
43706;SDS011;61348;53.392;-6.248;2024-03-08T03:53:06;34.30;;;14.50;;
43706;SDS011;61348;53.392;-6.248;2024-03-08T03:58:07;23.88;;;12.20;;
43706;SDS011;61348;53.392;-6.248;2024-03-08T04:00:38;33.72;;;14.98;;
43706;SDS011;61348;53.392;-6.248;2024-03-08T04:03:06;34.30;;;15.45;;
43706;SDS011;61348;53.392;-6.248;2024-03-08T04:05:34;26.83;;;13.25;;
43706;SDS011;61348;53.392;-6.248;2024-03-08T04:08:02;30.48;;;15.30;;
43706;SDS011;61348;53.392;-6.248;2024-03-08T04:10:30;30.95;;;14.27;;
43706;SDS011;61348;53.392;-6.248;2024-03-08T04:13:02;29.38;;;14.70;;
43706;SDS011;61348;53.392;-6.248;2024-03-08T04:15:30;30.77;;;14.65;;
43706;SDS011;61348;53.392;-6.248;2024-03-08T04:17:58;31.88;;;15.00;;
43706;SDS011;61348;53.392;-6.248;2024-03-08T04:20:27;31.45;;;14.57;;
43706;SDS011;61348;53.392;-6.248;2024-03-08T04:22:55;30.60;;;15.23;;
43706;SDS011;61348;53.392;-6.248;2024-03-08T04:25:22;34.17;;;15.52;;
43706;SDS011;61348;53.392;-6.248;2024-03-08T04:27:49;31.60;;;13.43;;
43706;SDS011;61348;53.392;-6.248;2024-03-08T04:30:17;31.50;;;13.57;;
43706;SDS011;61348;53.392;-6.248;2024-03-08T04:32:44;26.98;;;13.95;;
43706;SDS011;61348;53.392;-6.248;2024-03-08T04:35:12;30.02;;;14.65;;
43706;SDS011;61348;53.392;-6.248;2024-03-08T04:37:40;32.10;;;13.32;;
43706;SDS011;61348;53.392;-6.248;2024-03-08T04:40:07;31.45;;;14.43;;
43706;SDS011;61348;53.392;-6.248;2024-03-08T04:42:35;25.13;;;12.85;;
43706;SDS011;61348;53.392;-6.248;2024-03-08T04:45:04;37.47;;;14.35;;
43706;SDS011;61348;53.392;-6.248;2024-03-08T04:47:35;27.55;;;13.18;;
43706;SDS011;61348;53.392;-6.248;2024-03-08T04:50:04;36.92;;;16.45;;
43706;SDS011;61348;53.392;-6.248;2024-03-08T04:52:32;32.70;;;13.98;;
43706;SDS011;61348;53.392;-6.248;2024-03-08T04:54:59;27.55;;;14.25;;
43706;SDS011;61348;53.392;-6.248;2024-03-08T04:57:26;33.28;;;13.82;;
43706;SDS011;61348;53.392;-6.248;2024-03-08T04:59:54;32.13;;;13.35;;
43706;SDS011;61348;53.392;-6.248;2024-03-08T05:02:22;27.80;;;13.35;;
43706;SDS011;61348;53.392;-6.248;2024-03-08T05:04:49;33.22;;;13.82;;
43706;SDS011;61348;53.392;-6.248;2024-03-08T05:07:17;28.10;;;15.65;;
43706;SDS011;61348;53.392;-6.248;2024-03-08T05:09:47;32.92;;;13.57;;
43706;SDS011;61348;53.392;-6.248;2024-03-08T05:12:19;30.53;;;12.40;;
43706;SDS011;61348;53.392;-6.248;2024-03-08T05:14:46;29.40;;;13.02;;
43706;SDS011;61348;53.392;-6.248;2024-03-08T05:17:16;32.15;;;13.55;;
43706;SDS011;61348;53.392;-6.248;2024-03-08T05:19:44;29.25;;;15.10;;
43706;SDS011;61348;53.392;-6.248;2024-03-08T05:22:12;27.30;;;15.02;;
43706;SDS011;61348;53.392;-6.248;2024-03-08T05:24:40;33.40;;;15.55;;
43706;SDS011;61348;53.392;-6.248;2024-03-08T05:27:07;30.42;;;15.70;;
43706;SDS011;61348;53.392;-6.248;2024-03-08T05:29:35;34.75;;;14.18;;
43706;SDS011;61348;53.392;-6.248;2024-03-08T05:32:02;30.88;;;14.05;;
43706;SDS011;61348;53.392;-6.248;2024-03-08T05:34:30;30.52;;;14.80;;
43706;SDS011;61348;53.392;-6.248;2024-03-08T05:36:58;31.92;;;13.98;;
43706;SDS011;61348;53.392;-6.248;2024-03-08T05:39:25;31.08;;;14.50;;
43706;SDS011;61348;53.392;-6.248;2024-03-08T05:41:53;31.52;;;14.60;;
43706;SDS011;61348;53.392;-6.248;2024-03-08T05:44:22;30.63;;;15.43;;
43706;SDS011;61348;53.392;-6.248;2024-03-08T05:46:50;28.35;;;15.00;;
43706;SDS011;61348;53.392;-6.248;2024-03-08T05:49:17;25.63;;;14.15;;
43706;SDS011;61348;53.392;-6.248;2024-03-08T05:51:45;36.00;;;17.17;;
43706;SDS011;61348;53.392;-6.248;2024-03-08T05:54:14;40.47;;;18.05;;
43706;SDS011;61348;53.392;-6.248;2024-03-08T05:56:45;31.15;;;14.57;;
43706;SDS011;61348;53.392;-6.248;2024-03-08T05:59:15;35.67;;;15.10;;
43706;SDS011;61348;53.392;-6.248;2024-03-08T06:01:43;30.00;;;14.98;;
43706;SDS011;61348;53.392;-6.248;2024-03-08T06:04:10;30.95;;;14.90;;
43706;SDS011;61348;53.392;-6.248;2024-03-08T06:06:39;33.42;;;16.42;;
43706;SDS011;61348;53.392;-6.248;2024-03-08T06:09:07;32.13;;;15.88;;
43706;SDS011;61348;53.392;-6.248;2024-03-08T06:11:44;31.65;;;15.38;;
43706;SDS011;61348;53.392;-6.248;2024-03-08T06:14:12;29.52;;;14.82;;
43706;SDS011;61348;53.392;-6.248;2024-03-08T06:16:39;31.50;;;14.85;;
43706;SDS011;61348;53.392;-6.248;2024-03-08T06:19:07;31.45;;;14.52;;
43706;SDS011;61348;53.392;-6.248;2024-03-08T06:21:36;29.98;;;14.73;;
43706;SDS011;61348;53.392;-6.248;2024-03-08T06:24:03;38.33;;;16.55;;
43706;SDS011;61348;53.392;-6.248;2024-03-08T06:26:31;31.90;;;15.65;;
43706;SDS011;61348;53.392;-6.248;2024-03-08T06:29:01;33.08;;;15.20;;
43706;SDS011;61348;53.392;-6.248;2024-03-08T06:31:28;32.65;;;15.50;;
43706;SDS011;61348;53.392;-6.248;2024-03-08T06:33:55;35.33;;;16.42;;
43706;SDS011;61348;53.392;-6.248;2024-03-08T06:36:23;30.23;;;14.85;;
43706;SDS011;61348;53.392;-6.248;2024-03-08T06:38:51;34.33;;;16.25;;
43706;SDS011;61348;53.392;-6.248;2024-03-08T06:41:19;29.83;;;14.95;;
43706;SDS011;61348;53.392;-6.248;2024-03-08T06:43:47;41.17;;;17.15;;
43706;SDS011;61348;53.392;-6.248;2024-03-08T06:46:16;38.92;;;16.75;;
43706;SDS011;61348;53.392;-6.248;2024-03-08T06:48:43;34.67;;;16.73;;
43706;SDS011;61348;53.392;-6.248;2024-03-08T06:51:14;31.55;;;15.77;;
43706;SDS011;61348;53.392;-6.248;2024-03-08T06:53:42;35.00;;;16.70;;
43706;SDS011;61348;53.392;-6.248;2024-03-08T06:56:09;36.08;;;18.25;;
43706;SDS011;61348;53.392;-6.248;2024-03-08T06:58:37;34.10;;;18.08;;
43706;SDS011;61348;53.392;-6.248;2024-03-08T07:01:04;44.42;;;16.38;;
43706;SDS011;61348;53.392;-6.248;2024-03-08T07:03:35;37.53;;;17.10;;
43706;SDS011;61348;53.392;-6.248;2024-03-08T07:06:02;33.75;;;15.80;;
43706;SDS011;61348;53.392;-6.248;2024-03-08T07:08:31;38.45;;;17.33;;
43706;SDS011;61348;53.392;-6.248;2024-03-08T07:10:59;41.20;;;17.25;;
43706;SDS011;61348;53.392;-6.248;2024-03-08T07:13:27;35.63;;;17.95;;
43706;SDS011;61348;53.392;-6.248;2024-03-08T07:15:56;36.92;;;17.85;;
43706;SDS011;61348;53.392;-6.248;2024-03-08T07:18:23;35.55;;;15.63;;
43706;SDS011;61348;53.392;-6.248;2024-03-08T07:20:51;34.70;;;17.50;;
43706;SDS011;61348;53.392;-6.248;2024-03-08T07:23:18;36.58;;;18.15;;
43706;SDS011;61348;53.392;-6.248;2024-03-08T07:26:05;35.40;;;17.52;;
43706;SDS011;61348;53.392;-6.248;2024-03-08T07:28:32;38.63;;;18.67;;
43706;SDS011;61348;53.392;-6.248;2024-03-08T07:30:59;41.28;;;17.27;;
43706;SDS011;61348;53.392;-6.248;2024-03-08T07:33:39;30.13;;;16.17;;
43706;SDS011;61348;53.392;-6.248;2024-03-08T07:36:06;37.95;;;16.48;;
43706;SDS011;61348;53.392;-6.248;2024-03-08T07:38:34;39.13;;;17.42;;
43706;SDS011;61348;53.392;-6.248;2024-03-08T07:41:01;46.03;;;19.02;;
43706;SDS011;61348;53.392;-6.248;2024-03-08T07:43:31;37.90;;;17.45;;
43706;SDS011;61348;53.392;-6.248;2024-03-08T07:46:00;34.33;;;17.20;;
43706;SDS011;61348;53.392;-6.248;2024-03-08T07:48:27;40.47;;;19.58;;
43706;SDS011;61348;53.392;-6.248;2024-03-08T07:50:55;40.72;;;19.45;;
43706;SDS011;61348;53.392;-6.248;2024-03-08T07:53:23;41.80;;;18.30;;
43706;SDS011;61348;53.392;-6.248;2024-03-08T07:55:53;35.60;;;18.13;;
43706;SDS011;61348;53.392;-6.248;2024-03-08T07:58:21;44.88;;;18.70;;
43706;SDS011;61348;53.392;-6.248;2024-03-08T08:00:48;38.05;;;17.58;;
43706;SDS011;61348;53.392;-6.248;2024-03-08T08:03:16;33.10;;;17.25;;
43706;SDS011;61348;53.392;-6.248;2024-03-08T08:05:48;37.40;;;18.60;;
43706;SDS011;61348;53.392;-6.248;2024-03-08T08:08:16;37.55;;;17.48;;
43706;SDS011;61348;53.392;-6.248;2024-03-08T08:10:43;32.75;;;17.50;;
43706;SDS011;61348;53.392;-6.248;2024-03-08T08:13:11;41.17;;;19.00;;
43706;SDS011;61348;53.392;-6.248;2024-03-08T08:15:38;47.35;;;21.13;;
43706;SDS011;61348;53.392;-6.248;2024-03-08T08:18:05;33.58;;;16.02;;
43706;SDS011;61348;53.392;-6.248;2024-03-08T08:20:34;37.83;;;18.08;;
43706;SDS011;61348;53.392;-6.248;2024-03-08T08:23:01;39.65;;;18.95;;
43706;SDS011;61348;53.392;-6.248;2024-03-08T08:25:29;39.40;;;21.45;;
43706;SDS011;61348;53.392;-6.248;2024-03-08T08:27:56;36.78;;;17.05;;
43706;SDS011;61348;53.392;-6.248;2024-03-08T08:30:23;33.67;;;16.50;;
43706;SDS011;61348;53.392;-6.248;2024-03-08T08:32:51;30.70;;;14.93;;
43706;SDS011;61348;53.392;-6.248;2024-03-08T08:35:18;32.40;;;16.08;;
43706;SDS011;61348;53.392;-6.248;2024-03-08T08:37:46;32.67;;;17.40;;
43706;SDS011;61348;53.392;-6.248;2024-03-08T08:40:14;33.00;;;17.05;;
43706;SDS011;61348;53.392;-6.248;2024-03-08T08:42:42;39.53;;;18.10;;
43706;SDS011;61348;53.392;-6.248;2024-03-08T08:45:10;41.13;;;18.00;;
43706;SDS011;61348;53.392;-6.248;2024-03-08T08:47:46;36.00;;;18.15;;
43706;SDS011;61348;53.392;-6.248;2024-03-08T08:50:18;38.95;;;19.02;;
43706;SDS011;61348;53.392;-6.248;2024-03-08T08:52:54;38.47;;;17.75;;
43706;SDS011;61348;53.392;-6.248;2024-03-08T08:55:22;38.00;;;18.67;;
43706;SDS011;61348;53.392;-6.248;2024-03-08T08:57:53;34.92;;;18.20;;
43706;SDS011;61348;53.392;-6.248;2024-03-08T09:00:21;38.83;;;19.25;;
43706;SDS011;61348;53.392;-6.248;2024-03-08T09:02:51;38.35;;;18.58;;
43706;SDS011;61348;53.392;-6.248;2024-03-08T09:05:19;36.88;;;17.60;;
43706;SDS011;61348;53.392;-6.248;2024-03-08T09:07:48;44.88;;;19.50;;
43706;SDS011;61348;53.392;-6.248;2024-03-08T09:10:17;37.90;;;19.23;;
43706;SDS011;61348;53.392;-6.248;2024-03-08T09:12:45;39.60;;;21.17;;
43706;SDS011;61348;53.392;-6.248;2024-03-08T09:15:13;43.83;;;20.63;;
43706;SDS011;61348;53.392;-6.248;2024-03-08T09:17:41;38.20;;;19.58;;
43706;SDS011;61348;53.392;-6.248;2024-03-08T09:20:09;39.38;;;20.17;;
43706;SDS011;61348;53.392;-6.248;2024-03-08T09:22:39;47.15;;;21.35;;
43706;SDS011;61348;53.392;-6.248;2024-03-08T09:25:08;39.53;;;19.33;;
43706;SDS011;61348;53.392;-6.248;2024-03-08T09:27:36;46.55;;;20.95;;
43706;SDS011;61348;53.392;-6.248;2024-03-08T09:30:06;40.17;;;19.80;;
43706;SDS011;61348;53.392;-6.248;2024-03-08T09:32:34;37.25;;;18.77;;
43706;SDS011;61348;53.392;-6.248;2024-03-08T09:35:03;43.97;;;20.17;;
43706;SDS011;61348;53.392;-6.248;2024-03-08T09:37:35;43.50;;;22.42;;
43706;SDS011;61348;53.392;-6.248;2024-03-08T09:40:02;44.00;;;20.17;;
43706;SDS011;61348;53.392;-6.248;2024-03-08T09:42:37;32.60;;;16.63;;
43706;SDS011;61348;53.392;-6.248;2024-03-08T09:45:08;40.00;;;19.17;;
43706;SDS011;61348;53.392;-6.248;2024-03-08T09:47:42;42.03;;;21.30;;
43706;SDS011;61348;53.392;-6.248;2024-03-08T09:50:11;37.88;;;21.25;;
43706;SDS011;61348;53.392;-6.248;2024-03-08T09:52:48;42.28;;;19.98;;
43706;SDS011;61348;53.392;-6.248;2024-03-08T09:55:16;35.78;;;19.33;;
43706;SDS011;61348;53.392;-6.248;2024-03-08T09:57:51;39.42;;;19.02;;
43706;SDS011;61348;53.392;-6.248;2024-03-08T10:00:38;38.75;;;18.80;;
43706;SDS011;61348;53.392;-6.248;2024-03-08T10:03:06;38.05;;;18.60;;
43706;SDS011;61348;53.392;-6.248;2024-03-08T10:05:33;35.88;;;18.08;;
43706;SDS011;61348;53.392;-6.248;2024-03-08T10:08:00;35.97;;;18.98;;
43706;SDS011;61348;53.392;-6.248;2024-03-08T10:10:28;38.75;;;18.98;;
43706;SDS011;61348;53.392;-6.248;2024-03-08T10:12:55;43.95;;;19.95;;
43706;SDS011;61348;53.392;-6.248;2024-03-08T10:15:23;45.40;;;21.52;;
43706;SDS011;61348;53.392;-6.248;2024-03-08T10:17:51;45.65;;;21.45;;
43706;SDS011;61348;53.392;-6.248;2024-03-08T10:20:20;36.60;;;19.10;;
43706;SDS011;61348;53.392;-6.248;2024-03-08T10:22:47;37.85;;;19.67;;
43706;SDS011;61348;53.392;-6.248;2024-03-08T10:25:33;36.95;;;19.70;;
43706;SDS011;61348;53.392;-6.248;2024-03-08T10:28:04;40.92;;;19.50;;
43706;SDS011;61348;53.392;-6.248;2024-03-08T10:30:32;38.63;;;20.20;;
43706;SDS011;61348;53.392;-6.248;2024-03-08T10:32:59;37.22;;;22.17;;
43706;SDS011;61348;53.392;-6.248;2024-03-08T10:35:27;36.00;;;18.08;;
43706;SDS011;61348;53.392;-6.248;2024-03-08T10:37:54;29.95;;;17.15;;
43706;SDS011;61348;53.392;-6.248;2024-03-08T10:40:27;32.25;;;17.67;;
43706;SDS011;61348;53.392;-6.248;2024-03-08T10:42:56;29.80;;;17.95;;
43706;SDS011;61348;53.392;-6.248;2024-03-08T10:50:47;36.75;;;20.00;;
43706;SDS011;61348;53.392;-6.248;2024-03-08T10:53:17;30.85;;;17.40;;
43706;SDS011;61348;53.392;-6.248;2024-03-08T10:55:49;34.85;;;18.20;;
43706;SDS011;61348;53.392;-6.248;2024-03-08T10:58:21;34.17;;;19.45;;
43706;SDS011;61348;53.392;-6.248;2024-03-08T11:00:50;41.90;;;19.60;;
43706;SDS011;61348;53.392;-6.248;2024-03-08T11:06:07;40.25;;;20.67;;
43706;SDS011;61348;53.392;-6.248;2024-03-08T11:08:36;35.58;;;19.38;;
43706;SDS011;61348;53.392;-6.248;2024-03-08T11:11:03;33.95;;;19.60;;
43706;SDS011;61348;53.392;-6.248;2024-03-08T11:13:35;38.58;;;19.85;;
43706;SDS011;61348;53.392;-6.248;2024-03-08T11:16:11;35.95;;;19.65;;
43706;SDS011;61348;53.392;-6.248;2024-03-08T11:19:00;36.30;;;19.05;;
43706;SDS011;61348;53.392;-6.248;2024-03-08T11:21:32;41.42;;;21.25;;
43706;SDS011;61348;53.392;-6.248;2024-03-08T11:24:01;45.88;;;21.27;;
43706;SDS011;61348;53.392;-6.248;2024-03-08T11:26:30;40.95;;;21.65;;
43706;SDS011;61348;53.392;-6.248;2024-03-08T11:34:42;34.38;;;18.85;;
43706;SDS011;61348;53.392;-6.248;2024-03-08T11:37:16;37.03;;;21.65;;
43706;SDS011;61348;53.392;-6.248;2024-03-08T11:39:48;37.13;;;20.20;;
43706;SDS011;61348;53.392;-6.248;2024-03-08T11:42:17;38.42;;;20.02;;
43706;SDS011;61348;53.392;-6.248;2024-03-08T11:44:46;49.47;;;20.00;;
43706;SDS011;61348;53.392;-6.248;2024-03-08T11:47:15;38.30;;;19.25;;
43706;SDS011;61348;53.392;-6.248;2024-03-08T11:49:45;37.72;;;20.70;;
43706;SDS011;61348;53.392;-6.248;2024-03-08T11:52:15;36.97;;;20.58;;
43706;SDS011;61348;53.392;-6.248;2024-03-08T11:54:50;31.85;;;18.88;;
43706;SDS011;61348;53.392;-6.248;2024-03-08T11:57:24;40.10;;;19.65;;
43706;SDS011;61348;53.392;-6.248;2024-03-08T11:59:55;35.38;;;18.25;;
43706;SDS011;61348;53.392;-6.248;2024-03-08T12:02:33;43.67;;;22.67;;
43706;SDS011;61348;53.392;-6.248;2024-03-08T12:05:05;40.97;;;20.15;;
43706;SDS011;61348;53.392;-6.248;2024-03-08T12:07:37;38.97;;;19.63;;
43706;SDS011;61348;53.392;-6.248;2024-03-08T12:10:20;35.53;;;19.92;;
43706;SDS011;61348;53.392;-6.248;2024-03-08T12:12:49;34.85;;;19.85;;
43706;SDS011;61348;53.392;-6.248;2024-03-08T12:15:19;36.95;;;18.75;;
43706;SDS011;61348;53.392;-6.248;2024-03-08T12:17:48;38.83;;;19.45;;
43706;SDS011;61348;53.392;-6.248;2024-03-08T12:20:28;35.53;;;18.35;;
43706;SDS011;61348;53.392;-6.248;2024-03-08T12:22:59;42.63;;;21.30;;
43706;SDS011;61348;53.392;-6.248;2024-03-08T12:25:29;38.22;;;18.75;;
43706;SDS011;61348;53.392;-6.248;2024-03-08T12:28:08;35.15;;;18.35;;
43706;SDS011;61348;53.392;-6.248;2024-03-08T12:30:50;38.53;;;20.10;;
43706;SDS011;61348;53.392;-6.248;2024-03-08T12:33:20;39.75;;;21.23;;
43706;SDS011;61348;53.392;-6.248;2024-03-08T12:35:51;43.25;;;20.33;;
43706;SDS011;61348;53.392;-6.248;2024-03-08T12:38:22;39.45;;;21.17;;
43706;SDS011;61348;53.392;-6.248;2024-03-08T12:40:59;34.17;;;17.83;;
43706;SDS011;61348;53.392;-6.248;2024-03-08T12:43:28;42.40;;;18.65;;
43706;SDS011;61348;53.392;-6.248;2024-03-08T12:45:59;39.47;;;19.67;;
43706;SDS011;61348;53.392;-6.248;2024-03-08T12:48:26;32.63;;;16.75;;
43706;SDS011;61348;53.392;-6.248;2024-03-08T12:50:54;39.15;;;18.05;;
43706;SDS011;61348;53.392;-6.248;2024-03-08T12:53:22;39.63;;;18.02;;
43706;SDS011;61348;53.392;-6.248;2024-03-08T12:55:51;36.53;;;18.63;;
43706;SDS011;61348;53.392;-6.248;2024-03-08T12:58:19;38.28;;;18.15;;
43706;SDS011;61348;53.392;-6.248;2024-03-08T13:00:47;38.63;;;18.70;;
43706;SDS011;61348;53.392;-6.248;2024-03-08T13:03:20;37.05;;;19.65;;
43706;SDS011;61348;53.392;-6.248;2024-03-08T13:05:50;39.40;;;19.17;;
43706;SDS011;61348;53.392;-6.248;2024-03-08T13:08:17;39.88;;;17.55;;
43706;SDS011;61348;53.392;-6.248;2024-03-08T13:10:45;33.67;;;17.60;;
43706;SDS011;61348;53.392;-6.248;2024-03-08T13:13:12;43.40;;;21.23;;
43706;SDS011;61348;53.392;-6.248;2024-03-08T13:15:44;33.42;;;18.85;;
43706;SDS011;61348;53.392;-6.248;2024-03-08T13:18:12;33.30;;;19.33;;
43706;SDS011;61348;53.392;-6.248;2024-03-08T13:20:39;36.97;;;17.67;;
43706;SDS011;61348;53.392;-6.248;2024-03-08T13:23:14;39.63;;;20.35;;
43706;SDS011;61348;53.392;-6.248;2024-03-08T13:25:41;40.80;;;18.27;;
43706;SDS011;61348;53.392;-6.248;2024-03-08T13:28:09;36.30;;;19.17;;
43706;SDS011;61348;53.392;-6.248;2024-03-08T13:30:38;37.47;;;19.73;;
43706;SDS011;61348;53.392;-6.248;2024-03-08T13:33:05;32.90;;;17.00;;
43706;SDS011;61348;53.392;-6.248;2024-03-08T13:35:34;36.38;;;18.55;;
43706;SDS011;61348;53.392;-6.248;2024-03-08T13:38:02;33.72;;;18.23;;
43706;SDS011;61348;53.392;-6.248;2024-03-08T13:40:31;34.33;;;18.42;;
43706;SDS011;61348;53.392;-6.248;2024-03-08T13:42:58;40.00;;;18.00;;
43706;SDS011;61348;53.392;-6.248;2024-03-08T13:45:28;33.08;;;17.20;;
43706;SDS011;61348;53.392;-6.248;2024-03-08T13:47:55;33.20;;;17.75;;
43706;SDS011;61348;53.392;-6.248;2024-03-08T13:50:23;39.45;;;18.48;;
43706;SDS011;61348;53.392;-6.248;2024-03-08T13:52:52;40.25;;;20.13;;
43706;SDS011;61348;53.392;-6.248;2024-03-08T13:55:23;35.88;;;19.20;;
43706;SDS011;61348;53.392;-6.248;2024-03-08T14:00:24;42.20;;;19.98;;
43706;SDS011;61348;53.392;-6.248;2024-03-08T14:02:54;34.08;;;19.00;;
43706;SDS011;61348;53.392;-6.248;2024-03-08T14:05:22;32.65;;;17.70;;
43706;SDS011;61348;53.392;-6.248;2024-03-08T14:07:49;37.30;;;18.27;;
43706;SDS011;61348;53.392;-6.248;2024-03-08T14:10:17;41.28;;;18.98;;
43706;SDS011;61348;53.392;-6.248;2024-03-08T14:12:50;35.15;;;17.45;;
43706;SDS011;61348;53.392;-6.248;2024-03-08T14:15:18;51.70;;;20.85;;
43706;SDS011;61348;53.392;-6.248;2024-03-08T14:17:51;46.08;;;21.60;;
43706;SDS011;61348;53.392;-6.248;2024-03-08T14:20:20;41.53;;;19.10;;
43706;SDS011;61348;53.392;-6.248;2024-03-08T14:25:23;37.22;;;18.45;;
43706;SDS011;61348;53.392;-6.248;2024-03-08T14:27:52;38.22;;;22.25;;
43706;SDS011;61348;53.392;-6.248;2024-03-08T14:30:20;36.72;;;17.83;;
43706;SDS011;61348;53.392;-6.248;2024-03-08T14:33:05;42.97;;;19.60;;
43706;SDS011;61348;53.392;-6.248;2024-03-08T14:35:36;44.88;;;18.10;;
43706;SDS011;61348;53.392;-6.248;2024-03-08T14:38:07;45.80;;;22.55;;
43706;SDS011;61348;53.392;-6.248;2024-03-08T14:40:36;43.30;;;20.60;;